Race Schedule

  • 10:15 Race Line-up

  • 10:30 Race Begins

  • 1:30 Award Ceremony

  • Above the Napa Valley - Elevation 1667'
  • Race Director: Michael Hellie 707-965-6346
  • 10-mile multi-loop course:  see entry form for number of laps for your category
HOME NFOIRMATION START TIMES MAIL IN ENTRY FORM PHOTOS

 2012 Race Results     Result  Previous Years Results: 2011  2010, 2009, 2008, 2007, 2006, 2005, 2004, 2003, 2002, 2001, 2000

Class Name Place Name Result Race #
Open Pro Male 1 Jim Hewett 02:16:52 664
Open Pro Male 2 Greg Golet 02:20:38 779
Open Pro Male 3 Danny McNaughton 02:21:56 711
Open Expert Single Speed Male 1 Kevin Gambini 02:58:51 607
18 & Under Cat 1 Male 1 Eliel Anttila 02:18:20 630
19-34 Cat 1 Male 1 Andrew Taylor 02:19:39 653
19-34 Cat 1 Male 2 Ryan Chandler 02:24:18 646
19-34 Cat 1 Male 3 Krishna Dole 02:25:28 783
19-34 Cat 1 Male 4 Shiloh Kantz 02:26:13 757
19-34 Cat 1 Male 5 Matt McCourtney 02:26:19 781
19-34 Cat 1 Male 6 Kevin Herron 02:38:36 689
19-34 Cat 1 Male 7 Nathan Brown 02:39:36 712
19-34 Cat 1 Male 8 Brett Butler 03:25:01 782
19-34 Cat 1 Male 9 Seth Leidy 03:27:38 619
35-44 Cat 1 Male 1 William Kemper 02:22:00 668
35-44 Cat 1 Male 2 Stosh Bankston 02:32:47 777
35-44 Cat 1 Male 3 Michael Campbell 02:32:48 761
35-44 Cat 1 Male 4 Bryan Berry 02:35:24 643
35-44 Cat 1 Male 5 Christian Hobbs 02:37:19 654
35-44 Cat 1 Male 6 Brian Butler 02:43:06 719
35-44 Cat 1 Male 7 Eric Bustos 02:43:39 767
35-44 Cat 1 Male 8 Richard Kirby 02:45:31 649
35-44 Cat 1 Male 9 Peter Gilberd 02:46:12 673
35-44 Cat 1 Male 10 Hyland Fisher 02:46:58 758
35-44 Cat 1 Male 11 Chris Marsiguerra 03:04:12 702
45-54 Cat 1 Male 1 Tao Bernardi 02:34:58 710
45-54 Cat 1 Male 2 Berkeley White 02:35:29 774
45-54 Cat 1 Male 3 Scott Zavack 02:38:04 687
45-54 Cat 1 Male 4 Cliff Millemann 02:40:21 708
45-54 Cat 1 Male 5 Curtis Kimble 02:41:39 614
45-54 Cat 1 Male 6 John Vipiana 02:48:28 641
45-54 Cat 1 Male 7 Steve Wade 02:51:56 629
45-54 Cat 1 Male 8 Robert Martinez 03:13:41 703
55+ Cat 1 Male 1 Jim Lund 01:48:55 658
55+ Cat 1 Male 2 Scott Calley 01:49:33 633
Open Pro Female 1 Kimberly Fong 02:57:21 637
Open Sport Single Speed Male 1 Michael Jordon 01:53:29 786
Open Sport Single Speed Male 2 Chris Hansel 01:54:06 624
Open Sport Single Speed Male 3 Josh Baumsteiger 02:05:01 650
Open Sport Single Speed Male 4 Rubin Villarreal 02:06:26 776
Open Sport Single Speed Male 5 Cody Shibukawa 02:13:50 655
Open Sport Single Speed Male 6 Chris Borgian 02:20:55 763
Open Sport Single Speed Male 7 Nick Birth 02:23:26 716
Open Sport Single Speed Male 8 Nicholas Nesbitt 02:24:49 677
18 & under Cat 2 Male 1 Alec Pasqualina 01:44:27 665
18 & under Cat 2 Male 2 Seth Francis 01:48:50 671
18 & under Cat 2 Male 3 Nicholas Quiroz 02:06:32 765
18 & under Cat 2 Male 4 Eric Bryan 02:07:31 645
18 & under Cat 2 Male 5 Caylor Klinkenborg 02:20:25 639
18 & under Cat 2 Male 6 Trevor Johnson 02:21:48 635
19-34 Cat 2 Male 1 Aaron Faupell 01:44:05 769
19-34 Cat 2 Male 2 Samuel Guzman 01:45:09 663
19-34 Cat 2 Male 3 Miroslav Miklos 01:49:56 667
19-34 Cat 2 Male 4 Chad Arkoff 01:52:27 784
19-34 Cat 2 Male 5 Alex Trevena 01:53:08 691
19-34 Cat 2 Male 6 Mark Baeder 01:55:20 670
19-34 Cat 2 Male 7 Chris Bloomquist 01:59:48 608
19-34 Cat 2 Male 8 Adrian Doolittle 02:01:15 693
19-34 Cat 2 Male 9 Rashad Guerra 02:11:34 726
19-34 Cat 2 Male 10 Andrew Gustafson 02:11:35 674
19-34 Cat 2 Male 11 Brook Burley 02:12:34 611
19-34 Cat 2 Male 12 Nathaniel Eng 02:15:49 718
19-34 Cat 2 Male 13 Moshe Zilversmit 02:15:57 612
19-34 Cat 2 Male 14 Nate Kapinos 02:22:32 678
35-44 Cat 2 Male 1 Joshua Walker 01:49:44 760
35-44 Cat 2 Male 2 Brett Kelley 01:50:04 601
35-44 Cat 2 Male 3 Shawn Strickland 01:51:20 686
35-44 Cat 2 Male 4 Marco  Boldt 01:51:47 733
35-44 Cat 2 Male 5 John Clark 01:58:17 729
35-44 Cat 2 Male 6 Chuck Howse 01:59:15 603
35-44 Cat 2 Male 7 Adrian Tambien 01:59:55 773
35-44 Cat 2 Male 8 Chris Kohlhardt 02:00:30 772
35-44 Cat 2 Male 9 Paul Coleman 02:01:15 780
35-44 Cat 2 Male 10 Scott Kildall 02:02:35 688
35-44 Cat 2 Male 11 Leon Baptist 02:03:53 680
35-44 Cat 2 Male 12 Dennis Luz 02:04:26 775
35-44 Cat 2 Male 13 Charles Himes 02:05:59 715
35-44 Cat 2 Male 14 Tyler Newby 02:10:49 690
35-44 Cat 2 Male 15 James Lee 02:14:04 685
35-44 Cat 2 Male 16 Cameron Bryce 02:21:30 714
35-44 Cat 2 Male 17 Matthew Smith 02:32:19 694
35-44 Cat 2 Male 18 Mike Manuel 02:37:41 768
35-44 Cat 2 Male 19 Andrew  Proctor 02:46:57 615
35-44 Cat 2 Male 20 Alan Ting 03:29:38 681
45-54 Cat 2 Male 1 Erik Zimmer 01:48:29 620
45-54 Cat 2 Male 2 Steve Reddie 02:01:00 791
45-54 Cat 2 Male 3 James Winne 02:01:50 675
45-54 Cat 2 Male 4 Marcelo Quiroz 02:03:46 766
45-54 Cat 2 Male 5 David Wolbeck 02:04:06 728
45-54 Cat 2 Male 6 Tom Dillard 02:06:39 721
45-54 Cat 2 Male 7 Philip Klinkenborg 02:08:23 638
45-54 Cat 2 Male 8 Dino Basaldella 02:09:22 636
45-54 Cat 2 Male 9 Dan Lee 02:13:48 717
45-54 Cat 2 Male 10 Richard Jacinto 02:17:30 731
45-54 Cat 2 Male 11 Paciano Lara 02:22:17 725
45-54 Cat 2 Male 12 John Roberts 02:39:21 640
45-54 Cat 2 Male 13 Keith Silverman 02:50:18 724
55+ Cat 2 Male 1 Thomas Wood 02:09:32 722
55+ Cat 2 Male 2 Tim Hoffman 02:10:14 657
55+ Cat 2 Male 3 Charles McGadden 02:18:41 628
Open Clydesdale Male 1 Corey Dahline 02:06:06 730
Open Clydesdale Male 2 Mike Wilson 02:13:30 625
19-34 Cat 2 Female 1 Coral Honey 02:08:01 651
19-34 Cat 2 Female 2 Brianne Spiersch 02:10:39 720
35-44 Cat 2 Female 1 Jenny Walsh 02:12:51 756
45-54 Cat 2 Female 1 Linda Lindsay 02:17:15 701
13 & under Cat 3 Male 1 Kyler VanBuren 01:39:36 732
13 & under Cat 3 Male 2 Ryan Neuman 01:43:07 683
13 & under Cat 3 Male 3 Ben Golet 01:43:13 684
13 & under Cat 3 Male 4 Will Grace 02:52:50 706
14-18 Cat 3 Male 1 Drake Murphy 01:12:24 644
14-18 Cat 3 Male 2 Collin McCrary 01:14:45 692
19-34 Cat 3 Male 1 Alex Hardman 01:28:05 666
19-34 Cat 3 Male 2 Heath Hardcastle 01:43:15 695
35-44 Cat 3 Male 1 Brett Hahn 01:04:25 647
35-44 Cat 3 Male 2 Don Knapp 01:06:41 648
35-44 Cat 3 Male 3 Eli Makus 01:10:09 621
35-44 Cat 3 Male 4 Pat Blacklock 01:19:59 790
35-44 Cat 3 Male 5 Anthony Nichols 01:22:03 627
35-44 Cat 3 Male 6 Steve Braunlin 01:39:53 727
45-54 Cat 3 Male 1 Mike Warr 01:04:35 682
45-54 Cat 3 Male 2 Marc Couvillion 01:14:33 623
45-54 Cat 3 Male 3 Toby Katz 01:25:35 661
45-54 Cat 3 Male 4 Bill Leung 01:27:59 762
45-54 Cat 3 Male 5 Nick Ampon 02:02:15 785
45-54 Cat 3 Male 6 Kirk Grace 02:52:54 704
55+ Cat 3 Male 1 Doug Ward 01:12:48 679
55+ Cat 3 Male 2 Steve Maddix 01:14:37 634
55+ Cat 3 Male 3 Randall Souza 01:29:10 652
18 & under Cat 3 Female 1 Lauren Schulman 01:31:07 713
18 & under Cat 3 Female 2 Hannah Grace 02:45:12 705
19-34 Cat 3 Female 1 Anya Thrash 01:16:10 755
35-44 Cat 3 Female 1 Julie Blacklock 01:42:05 789
45-54 Cat 3 Female 1 Tracy Da Lomba 01:38:25 606
45-54 Cat 3 Female 2 Ellen Wilson 01:40:46 626
45-54 Cat 3 Female 3 Lisa Kindred 02:11:04 723
45-54 Cat 3 Female 4 Kathleen Winne 02:52:09 759